Latest Weather Observations for Longreach

IDQ60801

Issued at 11:05 pm EST Friday 18 April 2014 (issued every 30 minutes, with the page automatically refreshed every 10 minutes)

About weather observations | Map of weather stations | Latest weather observations for QLD | Other Formats
Station Details ID: 036031 Name: LONGREACH AERO Lat: -23.44 Lon: 144.28 Height: 192.2 m
Data from the previous 72 hours. | See also: Recent months at Longreach
Date/Time
EST
Temp
°C
App
Temp
°C
Dew
Point
Rel
Hum
%
Delta-T
°C
Wind Press
QNH
hPa
Press
MSL
hPa
Rain
since 9 am
mm
Dir
 
Spd
km/h
Gust
km/h
Spd
kts
Gust
kts
18/11:00pm 21.6 17.1 -0.2 23 9.8 S 13 17 7 9 1016.8 - 0.0
18/10:30pm 21.9 18.1 1.9 26 9.4 S 11 13 6 7 1016.8 - 0.0
18/10:00pm 23.0 18.8 1.5 24 10.1 S 13 15 7 8 1016.7 - 0.0
18/09:30pm 23.0 18.9 2.2 25 9.9 SSW 13 17 7 9 1016.6 - 0.0
18/09:00pm 24.4 19.8 1.8 22 10.8 S 15 17 8 9 1016.4 1015.5 0.0
18/08:30pm 24.7 20.8 1.3 21 11.1 S 11 13 6 7 1016.2 - 0.0
18/08:00pm 25.7 21.6 2.3 22 11.4 S 13 17 7 9 1015.8 - 0.0
18/07:30pm 26.0 22.2 3.9 24 11.1 S 13 15 7 8 1015.5 - 0.0
18/07:00pm 26.9 23.6 4.6 24 11.4 S 11 13 6 7 1015.1 - 0.0
18/06:30pm 28.0 24.6 3.8 21 12.3 S 11 13 6 7 1014.8 - 0.0
18/06:00pm 29.7 25.1 1.5 16 13.9 S 15 19 8 10 1014.5 1013.6 0.0
18/05:30pm 30.5 25.6 2.2 16 14.2 S 17 22 9 12 1014.1 - 0.0
18/05:00pm 31.3 26.3 1.3 14 14.9 S 17 20 9 11 1013.8 - 0.0
18/04:30pm 31.6 26.0 0.0 13 15.4 S 19 28 10 15 1013.7 - 0.0
18/04:00pm 31.8 26.6 2.5 15 14.9 SSW 19 26 10 14 1013.7 - 0.0
18/03:30pm 31.7 26.8 1.9 15 15.0 SSW 17 35 9 19 1013.5 - 0.0
18/03:00pm 31.9 27.8 2.4 15 15.0 S 13 28 7 15 1013.7 1012.8 0.0
18/02:30pm 31.5 28.6 4.4 18 14.2 ENE 9 11 5 6 1013.9 - 0.0
18/02:00pm 32.3 27.7 3.6 16 14.9 SSW 17 26 9 14 1014.2 - 0.0
18/01:30pm 31.2 26.2 4.8 19 13.9 SSE 20 28 11 15 1014.5 - 0.0
18/01:00pm 30.8 27.6 6.9 22 13.0 SE 13 26 7 14 1014.9 - 0.0
18/12:30pm 30.7 27.6 5.4 20 13.4 SSW 11 20 6 11 1015.6 - 0.0
18/12:00pm 30.7 26.5 3.7 18 13.9 ESE 15 26 8 14 1016.2 1015.2 0.0
18/11:30am 28.9 26.5 10.0 30 10.7 ESE 13 17 7 9 1016.6 - 0.0
18/11:00am 28.3 26.3 10.3 32 10.2 SE 11 17 6 9 1017.0 - 0.0
18/10:30am 27.4 24.8 9.4 32 10.0 SE 13 20 7 11 1017.4 - 0.0
18/10:00am 26.1 23.3 8.4 32 9.6 SE 13 22 7 12 1017.6 - 0.0
18/09:30am 25.3 21.9 7.7 32 9.4 ESE 15 22 8 12 1017.8 - 0.0
18/09:00am 23.4 19.9 5.5 31 9.1 SE 13 17 7 9 1017.6 1016.7 0.0
18/08:30am 21.8 17.7 4.3 32 8.6 SE 15 19 8 10 1017.5 - 0.0
18/08:00am 19.9 14.8 3.0 32 8.0 SE 19 24 10 13 1017.2 - 0.0
18/07:30am 18.1 12.9 2.5 35 7.2 SSE 19 24 10 13 1017.1 - 0.0
18/07:00am 16.7 11.5 2.7 39 6.4 SE 19 22 10 12 1017.0 - 0.0
18/06:30am 16.7 11.5 2.7 39 6.4 SE 19 22 10 12 1016.8 - 0.0
18/06:00am 17.3 12.5 2.5 37 6.8 SSE 17 19 9 10 1016.6 1015.7 0.0
18/05:30am 17.4 12.2 2.6 37 6.8 SE 19 22 10 12 1016.4 - 0.0
18/05:00am 18.0 12.8 2.3 35 7.2 SE 19 26 10 14 1016.2 - 0.0
18/04:30am 18.3 13.9 2.5 35 7.3 SSE 15 19 8 10 1016.1 - 0.0
18/04:00am 18.4 13.6 2.4 34 7.4 SSE 17 19 9 10 1016.2 - 0.0
18/03:30am 18.7 13.3 2.2 33 7.6 SSE 20 26 11 14 1016.3 - 0.0
18/03:00am 19.1 13.8 1.6 31 8.0 SSE 19 24 10 13 1016.5 1015.6 0.0
18/02:30am 19.0 14.0 1.4 31 8.0 SSE 17 19 9 10 1016.6 - 0.0
18/02:00am 19.2 14.2 1.1 29 8.2 SSE 17 20 9 11 1016.7 - 0.0
18/01:30am 20.0 14.8 0.1 26 8.9 SSE 17 19 9 10 1016.7 - 0.0
18/01:00am 19.9 14.8 0.9 28 8.6 SSE 17 20 9 11 1017.0 - 0.0
18/12:30am 20.4 15.3 0.8 27 8.9 SSE 17 19 9 10 1017.2 - 0.0
18/12:00am 21.5 15.9 0.0 24 9.7 SSE 19 24 10 13 1017.4 1016.5 0.0
 
Date/Time
EST
Temp
°C
App
Temp
°C
Dew
Point
Rel
Hum
%
Delta-T
°C
Wind Press
QNH
hPa
Press
MSL
hPa
Rain
since 9 am
mm
Dir
 
Spd
km/h
Gust
km/h
Spd
kts
Gust
kts
17/11:30pm 22.0 16.8 -0.1 23 10.0 SSE 17 22 9 12 1017.3 - 0.0
17/11:00pm 22.8 17.1 -0.4 21 10.5 SSE 19 26 10 14 1017.3 - 0.0
17/10:30pm 23.3 18.0 -0.9 20 10.9 S 17 22 9 12 1017.3 - 0.0
17/10:00pm 23.2 18.4 0.4 22 10.5 S 15 20 8 11 1017.2 - 0.0
17/09:30pm 24.2 19.0 0.2 20 11.1 S 17 24 9 13 1016.9 - 0.0
17/09:00pm 24.7 20.1 1.3 21 11.1 S 15 20 8 11 1016.7 1015.8 0.0
17/08:30pm 25.3 20.9 2.5 22 11.1 SSW 15 19 8 10 1016.5 - 0.0
17/08:00pm 25.5 21.8 4.2 25 10.7 S 13 20 7 11 1016.1 - 0.0
17/07:30pm 27.0 22.9 4.1 23 11.6 SSW 15 19 8 10 1015.7 - 0.0
17/07:00pm 27.7 24.1 4.8 23 11.8 S 13 19 7 10 1015.2 - 0.0
17/06:30pm 29.0 25.7 4.4 21 12.7 S 11 15 6 8 1014.8 - 0.0
17/06:00pm 30.1 26.2 3.5 18 13.6 S 13 20 7 11 1014.5 1013.6 0.0
17/05:30pm 31.0 25.8 3.7 17 14.1 S 20 26 11 14 1014.3 - 0.0
17/05:00pm 31.6 26.7 3.9 17 14.4 S 19 22 10 12 1014.0 - 0.0
17/04:30pm 32.3 28.1 4.0 17 14.8 SW 15 22 8 12 1014.0 - 0.0
17/04:00pm 32.1 28.2 3.6 16 14.8 SSW 13 19 7 10 1013.9 - 0.0
17/03:30pm 32.3 28.1 4.0 17 14.8 SSE 15 26 8 14 1013.9 - 0.0
17/03:00pm 32.3 28.3 2.9 15 15.1 SE 13 20 7 11 1014.2 1013.3 0.0
17/02:30pm 32.4 28.5 1.1 13 15.6 S 11 26 6 14 1014.3 - 0.0
17/02:00pm 32.2 26.5 0.6 13 15.6 SSW 20 26 11 14 1014.7 - 0.0
17/01:30pm 31.3 27.6 2.5 16 14.6 SE 11 19 6 10 1015.0 - 0.0
17/01:00pm 31.7 27.7 3.0 16 14.7 SSW 13 22 7 12 1015.7 - 0.0
17/12:35pm 31.4 27.6 3.8 17 14.3 SSW 13 - 7 - - 1015.0 -
17/12:30pm 31.0 27.1 5.4 20 13.6 S 15 22 8 12 1016.2 - 0.0
17/12:00pm 31.1 28.2 6.5 21 13.3 SW 11 17 6 9 1016.8 - 0.0
17/11:30am 30.2 27.6 7.8 24 12.3 ESE 11 19 6 10 1017.3 - 0.0
17/11:00am 29.1 27.5 10.3 31 10.7 SE 9 15 5 8 1017.7 - 0.0
17/10:30am 28.4 26.9 10.5 32 10.2 SE 9 15 5 8 1018.0 - 0.0
17/10:00am 27.0 24.5 9.8 34 9.6 ESE 13 19 7 10 1018.1 - 0.0
17/09:30am 25.6 22.2 9.2 35 9.0 SE 17 20 9 11 1018.0 - 0.0
17/09:00am 24.0 20.4 8.3 36 8.4 SE 17 22 9 12 1018.0 1017.1 0.2
17/08:30am 22.7 18.6 7.7 38 7.9 SE 19 26 10 14 1017.8 - 0.2
17/08:00am 21.2 17.8 7.6 41 7.1 SE 15 20 8 11 1017.7 - 0.2
17/07:30am 19.2 15.4 7.5 46 6.0 SE 17 19 9 10 1017.5 - 0.2
17/07:00am 18.0 14.2 7.6 50 5.3 SE 17 22 9 12 1017.1 - 0.2
17/06:30am 18.0 13.8 7.4 50 5.4 SE 19 22 10 12 1016.6 - 0.2
17/06:00am 18.2 14.4 7.7 50 5.4 SE 17 20 9 11 1016.3 1015.4 0.2
17/05:30am 18.6 14.3 7.2 47 5.8 SE 19 24 10 13 1016.1 - 0.2
17/05:00am 18.9 14.6 7.1 46 6.0 SE 19 24 10 13 1015.9 - 0.2
17/04:30am 19.3 15.0 7.2 45 6.2 SE 19 24 10 13 1015.8 - 0.2
17/04:00am 20.1 15.8 6.8 42 6.8 SE 19 24 10 13 1015.6 - 0.2
17/03:30am 20.5 16.2 6.8 41 7.0 SSE 19 24 10 13 1015.5 - 0.2
17/03:00am 20.8 16.2 6.7 40 7.2 SSE 20 26 11 14 1015.2 1014.3 0.2
17/02:30am 21.1 15.7 6.4 38 7.5 SSE 24 30 13 16 1015.2 - 0.2
17/02:00am 21.3 16.9 6.7 38 7.5 SSE 19 26 10 14 1015.4 - 0.2
17/01:30am 20.7 16.9 7.6 42 6.8 SSE 17 20 9 11 1015.5 - 0.2
17/01:00am 21.2 17.8 7.8 42 7.0 SSE 15 19 8 10 1015.6 - 0.2
17/12:30am 21.9 18.1 7.6 39 7.5 SSE 17 20 9 11 1015.8 - 0.2
17/12:00am 22.3 18.5 7.6 38 7.7 SSE 17 20 9 11 1015.7 1014.7 0.2
 
Date/Time
EST
Temp
°C
App
Temp
°C
Dew
Point
Rel
Hum
%
Delta-T
°C
Wind Press
QNH
hPa
Press
MSL
hPa
Rain
since 9 am
mm
Dir
 
Spd
km/h
Gust
km/h
Spd
kts
Gust
kts
16/11:30pm 22.7 18.9 7.4 37 8.0 SSE 17 22 9 12 1015.6 - 0.2
16/11:00pm 23.5 19.6 7.3 35 8.5 S 17 22 9 12 1015.6 - 0.2
16/10:30pm 23.9 20.1 7.4 34 8.7 S 17 19 9 10 1015.5 - 0.2
16/10:00pm 24.1 20.8 8.0 35 8.6 S 15 19 8 10 1015.2 - 0.2
16/09:30pm 24.2 21.4 8.4 36 8.5 S 13 17 7 9 1015.0 - 0.2
16/09:00pm 24.5 21.4 8.9 37 8.5 S 15 17 8 9 1014.8 1013.9 0.2
16/08:30pm 25.7 22.5 8.4 33 9.4 S 15 17 8 9 1014.6 - 0.2
16/08:00pm 25.5 22.9 9.4 36 8.9 SSE 13 17 7 9 1014.3 - 0.2
16/07:30pm 26.4 23.9 9.7 35 9.3 S 13 15 7 8 1014.1 - 0.2
16/07:00pm 27.4 25.2 9.2 32 10.1 S 11 15 6 8 1013.7 - 0.2
16/06:30pm 28.6 25.5 8.8 29 11.0 S 15 17 8 9 1013.4 - 0.2
16/06:00pm 30.0 26.3 7.8 25 12.2 S 17 26 9 14 1013.2 1012.3 0.2
16/05:30pm 31.0 27.2 7.6 23 12.9 SSW 17 20 9 11 1012.9 - 0.2
16/05:00pm 31.8 29.3 8.2 23 13.2 SSW 11 15 6 8 1012.6 - 0.2
16/04:30pm 31.9 29.4 8.3 23 13.2 WSW 11 19 6 10 1012.5 - 0.2
16/04:00pm 31.9 30.2 10.0 26 12.6 SW 9 13 5 7 1012.5 - 0.2
16/03:30pm 31.3 30.0 12.5 31 11.2 SE 11 22 6 12 1012.7 - 0.2
16/03:00pm 31.8 30.3 10.6 27 12.3 ENE 9 17 5 9 1012.9 1012.0 0.2
16/02:30pm 30.9 27.3 9.9 27 12.0 S 19 26 10 14 1013.1 - 0.2
16/02:00pm 31.6 29.5 8.4 23 13.0 ESE 9 17 5 9 1013.5 - 0.2
16/01:30pm 31.3 28.9 10.0 26 12.2 SSW 13 20 7 11 1013.8 - 0.2
16/01:00pm 30.7 30.3 15.2 39 9.6 ESE 11 19 6 10 1014.3 - 0.2
16/12:30pm 30.2 30.0 15.6 41 9.1 S 11 13 6 7 1014.8 - 0.2
16/12:00pm 29.1 28.8 16.5 46 7.9 SSE 13 17 7 9 1015.2 1014.3 0.2
16/11:30am 28.4 28.9 16.6 48 7.4 SE 9 13 5 7 1015.8 - 0.2
16/11:00am 28.3 29.4 17.0 50 7.1 NNW 7 15 4 8 1016.3 - 0.2
16/10:30am 27.3 28.2 17.5 55 6.2 ENE 9 17 5 9 1016.5 - 0.2
16/10:00am 26.5 27.2 18.0 59 5.4 E 11 15 6 8 1016.6 - 0.0
16/09:30am 24.9 26.0 17.9 65 4.4 E 9 15 5 8 1016.6 - 0.0
16/09:00am 23.5 23.9 18.1 71 3.4 ESE 13 17 7 9 1016.4 1015.5 1.2
16/08:30am 22.2 23.0 18.2 78 2.5 SE 11 13 6 7 1016.4 - 1.2
16/08:00am 20.0 20.2 17.7 86 1.4 ESE 13 17 7 9 1016.2 - 1.2
16/07:30am 18.7 18.9 16.7 88 1.2 S 11 13 6 7 1016.1 - 1.2
16/07:00am 18.1 18.6 16.6 91 0.9 SE 9 13 5 7 1015.8 - 1.2
16/06:30am 17.3 17.0 16.5 95 0.5 SE 13 15 7 8 1015.4 - 1.2
16/06:00am 17.6 17.7 16.4 93 0.7 SSE 11 13 6 7 1014.8 1013.9 1.2
16/05:30am 17.6 18.1 16.6 94 0.6 ESE 9 13 5 7 1014.5 - 1.2
16/05:00am 17.8 18.7 16.6 93 0.7 SSE 7 9 4 5 1014.2 - 1.2
16/04:30am 18.3 18.5 16.8 91 0.9 S 11 13 6 7 1014.1 - 1.2
16/04:00am 18.4 18.4 17.1 92 0.8 SSW 13 17 7 9 1014.1 - 1.2
16/03:30am 18.2 19.0 17.4 95 0.5 SW 9 11 5 6 1014.2 - 1.2
16/03:00am 18.3 19.2 17.5 95 0.5 SW 9 11 5 6 1014.1 1013.2 1.2
16/02:30am 18.2 20.8 17.4 95 0.5 CALM 0 0 0 0 1014.1 - 1.2
16/02:00am 18.9 20.4 17.6 92 0.8 S 6 7 3 4 1014.4 - 1.2
16/01:30am 19.1 20.5 17.8 92 0.8 SE 7 7 4 4 1014.5 - 1.2
16/01:00am 20.0 21.4 17.7 86 1.4 SE 7 9 4 5 1014.6 - 1.2
16/12:30am 20.5 21.1 17.8 84 1.7 SE 11 15 6 8 1014.6 - 1.2
16/12:00am 20.4 21.4 17.8 85 1.6 E 9 11 5 6 1015.0 1014.1 1.2
 
Date/Time
EST
Temp
°C
App
Temp
°C
Dew
Point
Rel
Hum
%
Delta-T
°C
Wind Press
QNH
hPa
Press
MSL
hPa
Rain
since 9 am
mm
Dir
 
Spd
km/h
Gust
km/h
Spd
kts
Gust
kts
15/11:30pm 21.2 22.3 18.0 82 2.0 ESE 9 11 5 6 1015.2 - 1.2

Other Formats:

Comma delimited format used in spreadsheet applications
http://www.bom.gov.au/fwo/IDQ60801/IDQ60801.94346.axf

JavaScript Object Notation format (JSON) in row-major order
http://www.bom.gov.au/fwo/IDQ60801/IDQ60801.94346.json